Terminal Aerodrome Forecast
Issued by NWS

Home | Current Version | Previous Version | Text Only | Print | Product List | Glossary On
Versions: 1 2 3 4 5 6 7 8 9 10 11 12 13 14 15 16 17
067
FTUS43 KMPX 230112 AAA
TAFAXN
TAF AMD
KAXN 230112Z 2301/2324 09008KT 3/4SM -SN BR VV005
      TEMPO 2301/2304 1/4SM +SN FG VV003
     FM230600 11005KT 2SM -SN BR OVC008
     FM231200 30006KT P6SM OVC010
     FM231500 31008KT P6SM OVC012
     FM231800 31011KT P6SM BKN015
     FM232200 30009KT P6SM SCT020=

USA.gov is the U.S. government's official web portal to all federal, state and local government web resources and services.